Time;durP1;ratioP1;P1;durP2;ratioP2;P2;SDS_P1;SDS_P2;PMS_P1;PMS_P2;Temp;Humidity;BMP_temperature;BMP_pressure;BME280_temperature;BME280_humidity;BME280_pressure;Samples;Min_cycle;Max_cycle;Signal;HPM_P1;HPM_P2
2022/01/08 00:01:33;;;;;;;10.85;7.28;;;;;;;2.11;63.22;97422.31;12766290;23;20020;-79
2022/01/08 00:06:54;;;;;;;13.27;7.35;;;;;;;2.16;63.37;97424.19;12736075;23;20016;-79
2022/01/08 00:12:15;;;;;;;11.30;7.28;;;;;;;2.23;62.88;97433.75;12765511;23;20013;-79
2022/01/08 00:17:37;;;;;;;14.25;8.82;;;;;;;2.21;62.84;97415.00;12745929;23;20100;-80
2022/01/08 00:22:58;;;;;;;12.57;8.30;;;;;;;2.10;63.07;97420.84;12745858;23;20135;-79
2022/01/08 00:28:19;;;;;;;12.73;7.60;;;;;;;2.08;62.40;97414.41;12786522;23;20020;-80
2022/01/08 00:33:40;;;;;;;13.50;7.80;;;;;;;1.96;62.62;97417.50;12787700;23;20067;-80
2022/01/08 00:39:01;;;;;;;13.80;7.03;;;;;;;1.91;62.38;97404.63;12725728;23;20029;-79
2022/01/08 00:44:23;;;;;;;13.10;7.22;;;;;;;1.94;62.50;97400.78;12746735;23;20463;-79
2022/01/08 00:49:44;;;;;;;11.60;7.40;;;;;;;1.85;62.40;97395.81;12767112;23;20380;-79
2022/01/08 00:55:06;;;;;;;12.35;7.38;;;;;;;1.93;62.94;97388.31;12766574;23;20017;-79
2022/01/08 01:00:27;;;;;;;14.35;8.02;;;;;;;1.97;62.49;97385.19;12787434;23;20020;-79
2022/01/08 01:05:49;;;;;;;11.95;7.68;;;;;;;1.96;62.85;97387.22;12746690;23;20044;-79
2022/01/08 01:11:10;;;;;;;14.25;7.88;;;;;;;1.96;63.01;97365.19;12767363;23;20095;-79
2022/01/08 01:16:32;;;;;;;11.98;7.03;;;;;;;1.95;62.83;97368.50;12745827;23;20013;-79
2022/01/08 01:21:56;;;;;;;11.40;7.50;;;;;;;1.95;62.25;97363.72;12767601;23;20017;-80
2022/01/08 01:49:35;;;;;;;12.48;7.18;;;;;;;2.20;63.03;97357.72;12809699;23;20013;-79
2022/01/08 01:54:57;;;;;;;12.70;7.15;;;;;;;2.19;63.10;97365.25;12789147;23;20013;-80
2022/01/08 02:00:19;;;;;;;13.10;7.00;;;;;;;2.21;63.01;97361.94;12769273;23;20432;-79
2022/01/08 02:05:40;;;;;;;12.80;7.55;;;;;;;2.21;62.83;97359.19;12749496;23;20322;-79
2022/01/08 02:11:02;;;;;;;15.10;7.97;;;;;;;2.26;62.93;97355.53;12788854;23;20017;-79
2022/01/08 02:16:24;;;;;;;11.68;7.65;;;;;;;2.33;62.95;97359.59;12768031;23;20359;-79
2022/01/08 02:21:56;;;;;;;10.82;7.10;;;;;;;2.36;63.30;97356.47;12767486;23;20459;-79
2022/01/08 02:27:17;;;;;;;11.05;6.82;;;;;;;2.37;62.89;97355.19;12768205;23;20040;-79
2022/01/08 02:32:41;;;;;;;10.73;6.80;;;;;;;2.44;62.93;97350.97;12746983;23;20017;-79
2022/01/08 02:38:02;;;;;;;11.32;7.38;;;;;;;2.42;62.83;97362.56;12767414;23;20068;-79
2022/01/08 02:43:24;;;;;;;11.48;7.57;;;;;;;2.47;62.43;97352.63;12766957;23;20456;-78
2022/01/08 02:48:45;;;;;;;13.73;8.43;;;;;;;2.51;62.52;97345.47;12747024;23;20017;-79
2022/01/08 02:54:10;;;;;;;13.40;7.72;;;;;;;2.38;62.68;97340.13;12765279;23;20013;-79
2022/01/08 02:59:31;;;;;;;11.93;7.20;;;;;;;2.41;62.92;97332.78;12765495;23;20071;-79
2022/01/08 03:04:54;;;;;;;13.45;7.85;;;;;;;2.31;62.79;97335.34;12764666;23;20017;-79
2022/01/08 03:10:16;;;;;;;12.57;7.13;;;;;;;2.38;62.95;97315.34;12787902;23;20024;-79
2022/01/08 03:15:39;;;;;;;10.95;6.47;;;;;;;2.44;62.96;97313.16;12766907;23;20013;-79
2022/01/08 03:21:02;;;;;;;9.27;6.53;;;;;;;2.46;62.18;97318.84;12766488;23;20047;-79
2022/01/08 03:26:24;;;;;;;11.82;6.80;;;;;;;2.54;62.75;97307.81;12746896;23;20033;-79
2022/01/08 03:31:44;;;;;;;10.13;6.82;;;;;;;2.52;62.88;97299.38;12764839;23;20013;-79
2022/01/08 03:37:06;;;;;;;9.70;6.32;;;;;;;2.45;63.12;97287.06;12764309;23;20047;-79
2022/01/08 03:42:26;;;;;;;10.23;6.82;;;;;;;2.47;62.83;97295.50;12744171;23;20108;-79
2022/01/08 03:53:09;;;;;;;8.30;6.13;;;;;;;2.55;62.72;97273.47;12739253;23;20036;-79
2022/01/08 03:58:30;;;;;;;12.13;6.97;;;;;;;2.56;63.07;97275.66;12764136;23;20017;-79
2022/01/08 04:03:51;;;;;;;8.90;6.35;;;;;;;2.59;62.85;97271.78;12784776;23;20068;-79
2022/01/08 04:09:13;;;;;;;10.27;6.32;;;;;;;2.57;62.89;97274.38;12764202;23;20021;-79
2022/01/08 04:14:51;;;;;;;8.38;6.03;;;;;;;2.51;63.22;97275.84;12744447;23;20045;-79
2022/01/08 04:20:13;;;;;;;9.43;6.15;;;;;;;2.51;63.21;97273.84;12771264;23;20096;-79
2022/01/08 04:25:35;;;;;;;7.80;5.80;;;;;;;2.59;63.23;97271.06;12783025;23;20025;-79
2022/01/08 04:30:56;;;;;;;7.40;5.35;;;;;;;2.61;62.92;97262.28;12743591;23;20017;-79
2022/01/08 04:36:17;;;;;;;8.90;5.43;;;;;;;2.65;62.77;97268.13;12763887;23;20025;-79
2022/01/08 04:41:38;;;;;;;9.15;4.95;;;;;;;2.66;62.81;97253.06;12763501;23;20025;-79
2022/01/08 04:46:59;;;;;;;7.25;5.03;;;;;;;2.63;63.27;97252.16;12764057;23;20020;-79
2022/01/08 04:52:20;;;;;;;7.15;4.97;;;;;;;2.66;63.16;97237.25;12763582;23;20347;-79
2022/01/08 04:57:41;;;;;;;7.57;5.05;;;;;;;2.71;62.82;97243.88;12762903;23;20048;-79
2022/01/08 05:03:01;;;;;;;7.32;5.00;;;;;;;2.71;63.05;97243.88;12744271;23;20101;-79
2022/01/08 05:08:22;;;;;;;5.97;4.28;;;;;;;2.72;63.20;97237.09;12751651;23;20017;-79
2022/01/08 05:13:44;;;;;;;6.70;4.82;;;;;;;2.73;63.00;97241.31;12788461;23;20013;-80
2022/01/08 05:19:06;;;;;;;6.05;4.78;;;;;;;2.73;62.85;97241.31;12772416;23;20066;-80
2022/01/08 05:24:27;;;;;;;6.75;4.88;;;;;;;2.72;62.85;97242.59;12750442;23;20051;-79
2022/01/08 05:29:49;;;;;;;8.18;5.13;;;;;;;2.65;62.60;97235.06;12768969;23;20455;-81
2022/01/08 05:35:11;;;;;;;8.57;5.80;;;;;;;2.53;63.08;97240.97;12750526;23;20024;-80
2022/01/08 05:40:31;;;;;;;9.80;5.88;;;;;;;2.31;63.29;97230.66;12724907;23;20021;-80
2022/01/08 05:45:52;;;;;;;7.57;5.13;;;;;;;1.90;63.01;97226.25;12773070;23;20024;-80
2022/01/08 05:51:13;;;;;;;9.18;5.22;;;;;;;1.59;64.08;97237.22;12793433;23;20102;-79
2022/01/08 05:56:35;;;;;;;8.98;5.32;;;;;;;1.47;64.68;97236.09;12783593;23;20017;-81
2022/01/08 06:01:56;;;;;;;8.23;5.22;;;;;;;1.35;64.41;97232.16;12765996;23;20021;-80
2022/01/08 06:07:17;;;;;;;9.55;6.18;;;;;;;1.15;64.94;97236.50;12791613;23;20021;-80
2022/01/08 06:12:38;;;;;;;8.25;4.88;;;;;;;1.03;64.78;97244.31;12768010;23;20444;-80
2022/01/08 06:17:59;;;;;;;9.15;5.63;;;;;;;0.98;64.90;97245.22;12790969;23;20021;-80
2022/01/08 06:23:20;;;;;;;6.80;5.22;;;;;;;1.09;65.27;97242.16;12833031;23;20079;-81
2022/01/08 06:28:42;;;;;;;6.88;4.43;;;;;;;1.21;65.29;97239.81;12774083;23;20025;-81
2022/01/08 06:34:03;;;;;;;8.55;5.22;;;;;;;1.32;64.94;97250.50;12794391;23;20028;-80
2022/01/08 06:39:24;;;;;;;6.70;4.40;;;;;;;1.48;64.71;97254.06;12789519;23;20013;-80
2022/01/08 06:44:45;;;;;;;9.57;4.90;;;;;;;1.54;64.43;97248.38;12811165;23;20024;-80
2022/01/08 06:50:07;;;;;;;8.45;5.57;;;;;;;1.37;65.08;97241.38;12793471;23;20020;-80
2022/01/08 06:55:28;;;;;;;8.70;5.65;;;;;;;1.17;64.86;97242.22;12769393;23;20021;-80
2022/01/08 07:00:49;;;;;;;8.88;5.38;;;;;;;1.06;65.00;97248.00;12772625;23;20096;-81
2022/01/08 07:06:10;;;;;;;8.98;5.75;;;;;;;1.02;65.12;97244.88;12799563;23;20017;-80
2022/01/08 07:11:32;;;;;;;7.75;4.72;;;;;;;0.96;64.90;97241.53;12785938;23;20009;-79
2022/01/08 07:16:54;;;;;;;9.85;6.20;;;;;;;0.89;65.80;97250.50;12747686;23;20123;-78
2022/01/08 07:22:15;;;;;;;7.95;5.45;;;;;;;0.94;65.96;97246.84;12744221;23;20036;-78
2022/01/08 07:27:37;;;;;;;7.68;5.57;;;;;;;1.05;65.03;97247.25;12764727;23;20456;-78
2022/01/08 07:32:58;;;;;;;9.70;6.32;;;;;;;3.49;62.60;97241.06;12766459;23;20017;-80
2022/01/08 07:38:19;;;;;;;7.95;5.55;;;;;;;6.84;55.19;97252.47;12765499;23;20013;-80
2022/01/08 07:43:39;;;;;;;6.53;5.22;;;;;;;8.12;55.79;97255.31;12771109;23;20013;-80
2022/01/08 07:49:01;;;;;;;7.65;5.57;;;;;;;7.93;50.77;97256.09;12749833;23;20028;-80
2022/01/08 07:54:21;;;;;;;7.50;5.35;;;;;;;11.91;49.36;97265.44;12758645;23;20021;-80
2022/01/08 07:59:42;;;;;;;7.45;5.72;;;;;;;14.98;39.48;97271.97;12783631;23;20380;-80
2022/01/08 08:05:04;;;;;;;6.65;5.38;;;;;;;17.38;35.83;97267.03;12783285;23;20045;-80
2022/01/08 08:10:31;;;;;;;7.05;5.30;;;;;;;19.76;33.56;97267.53;12699814;23;20014;-77
2022/01/08 08:15:52;;;;;;;5.97;4.93;;;;;;;19.93;28.53;97269.34;12676563;23;20445;-80
2022/01/08 08:21:12;;;;;;;6.90;5.47;;;;;;;21.36;27.54;97256.00;12676117;23;20334;-79
2022/01/08 08:26:34;;;;;;;7.15;4.75;;;;;;;21.84;23.92;97251.81;12676652;23;20445;-78
2022/01/08 08:31:55;;;;;;;5.15;4.57;;;;;;;23.05;26.02;97252.00;12676592;23;20029;-78
2022/01/08 08:37:15;;;;;;;5.43;4.53;;;;;;;23.82;24.51;97274.81;12675245;23;20449;-77
2022/01/08 08:42:37;;;;;;;4.75;4.28;;;;;;;22.94;22.98;97259.72;12676150;23;20054;-77
2022/01/08 08:47:58;;;;;;;5.13;4.40;;;;;;;20.52;22.59;97250.13;12676933;23;20022;-78
2022/01/08 08:53:18;;;;;;;5.72;4.85;;;;;;;21.87;20.69;97253.97;12676131;23;20555;-77
2022/01/08 08:58:39;;;;;;;5.18;4.35;;;;;;;21.01;21.43;97245.41;12695693;23;20021;-77
2022/01/08 09:04:00;;;;;;;4.70;4.20;;;;;;;21.13;20.89;97251.28;12675266;23;20018;-78
2022/01/08 09:09:21;;;;;;;5.72;4.57;;;;;;;18.31;22.63;97254.41;12680065;23;20044;-79
2022/01/08 09:14:42;;;;;;;7.88;5.30;;;;;;;13.92;25.75;97253.19;12695480;23;20014;-80
2022/01/08 09:20:04;;;;;;;5.50;4.65;;;;;;;10.37;32.13;97244.06;12677918;23;20021;-78
2022/01/08 09:25:25;;;;;;;7.70;4.93;;;;;;;8.17;37.56;97249.44;12643934;23;20385;-80
2022/01/08 09:30:46;;;;;;;7.97;5.35;;;;;;;7.04;36.45;97225.50;12681158;23;20025;-76
2022/01/08 09:36:09;;;;;;;7.53;5.65;;;;;;;6.71;39.38;97225.91;12658173;23;20081;-75
2022/01/08 09:41:30;;;;;;;7.05;5.30;;;;;;;6.52;40.20;97220.31;12698523;23;20029;-76
2022/01/08 09:46:51;;;;;;;6.22;5.13;;;;;;;6.97;41.61;97204.91;12638182;23;20025;-75
2022/01/08 09:52:12;;;;;;;6.68;4.63;;;;;;;9.02;37.95;97198.75;12681367;23;20028;-75
2022/01/08 09:57:33;;;;;;;6.00;4.80;;;;;;;11.36;34.21;97204.41;12601898;23;20384;-75
2022/01/08 10:02:54;;;;;;;7.45;5.00;;;;;;;8.39;35.40;97202.97;12661292;23;20073;-77
2022/01/08 10:08:15;;;;;;;9.35;5.55;;;;;;;6.44;41.34;97183.66;12750239;23;20424;-77
2022/01/08 10:13:41;;;;;;;7.88;5.40;;;;;;;6.07;44.30;97185.75;12787374;23;20088;-77
2022/01/08 10:19:24;;;;;;;8.90;5.55;;;;;;;6.09;43.79;97177.59;12765374;23;20025;-75
2022/01/08 10:24:45;;;;;;;8.60;5.60;;;;;;;6.81;43.95;97173.22;12764387;23;20506;-80
2022/01/08 10:30:08;;;;;;;10.00;6.82;;;;;;;7.69;41.38;97172.50;12798831;23;20027;-80
2022/01/08 10:35:49;;;;;;;7.85;5.38;;;;;;;8.03;41.63;97167.88;12823951;23;20021;-84
2022/01/08 10:41:15;;;;;;;7.90;6.15;;;;;;;8.23;41.70;97158.09;12762442;23;20317;-75
2022/01/08 10:46:36;;;;;;;11.13;7.35;;;;;;;6.88;42.19;97170.28;12760796;23;20017;-76
2022/01/08 10:58:13;;;;;;;10.52;6.80;;;;;;;5.44;46.72;97142.91;12703438;23;20024;-81
2022/01/08 11:03:39;;;;;;;10.02;5.72;;;;;;;5.47;46.26;97145.22;12874923;23;20080;-82
2022/01/08 11:09:01;;;;;;;9.20;6.10;;;;;;;5.52;45.38;97151.09;12760097;23;20055;-79
2022/01/08 11:20:08;;;;;;;10.32;6.78;;;;;;;4.66;47.86;97138.88;12782925;23;20096;-80
2022/01/08 11:25:33;;;;;;;11.93;6.72;;;;;;;4.60;47.78;97135.63;12815625;23;20001;-81
2022/01/08 11:37:10;;;;;;;9.65;6.28;;;;;;;4.75;51.76;97118.13;12842999;23;20024;-82
2022/01/08 11:42:37;;;;;;;8.80;5.72;;;;;;;4.63;50.77;97122.69;12900544;23;20004;-80
2022/01/08 11:47:59;;;;;;;9.15;5.90;;;;;;;4.54;51.21;97126.84;12780310;23;20032;-81
2022/01/08 11:53:25;;;;;;;7.45;5.88;;;;;;;4.38;53.43;97108.97;12810137;23;20028;-77
2022/01/08 11:58:46;;;;;;;11.88;7.28;;;;;;;4.32;54.15;97111.94;12802418;23;20023;-79
2022/01/08 12:04:13;;;;;;;11.80;7.43;;;;;;;4.20;55.29;97106.19;12855138;23;20020;-80
2022/01/08 12:09:39;;;;;;;13.35;6.35;;;;;;;4.17;55.38;97101.06;12784231;23;20024;-79
2022/01/08 12:15:01;;;;;;;13.07;7.30;;;;;;;4.22;56.27;97094.56;12797677;23;20025;-80
2022/01/08 12:20:43;;;;;;;9.50;6.22;;;;;;;4.06;56.57;97101.53;12823818;23;20001;-81
2022/01/08 12:26:17;;;;;;;10.65;6.97;;;;;;;3.88;57.21;97089.72;12804490;23;20020;-82
2022/01/08 12:38:07;;;;;;;11.60;6.97;;;;;;;3.80;56.80;97086.28;12883001;23;20012;-83
2022/01/08 12:50:04;;;;;;;;;;;;;;;3.95;57.09;97069.56;12742714;23;20035;-82
2022/01/08 12:55:25;;;;;;;12.45;7.57;;;;;;;4.01;57.82;97067.31;12831416;23;19908;-83
2022/01/08 13:01:08;;;;;;;9.68;6.95;;;;;;;4.00;57.61;97066.59;12783989;23;20032;-78
2022/01/08 13:06:33;;;;;;;10.73;7.18;;;;;;;3.98;56.86;97065.69;12791867;23;20034;-78
2022/01/08 13:11:56;;;;;;;10.73;7.32;;;;;;;3.84;57.96;97053.47;12818881;23;20013;-78
2022/01/08 13:17:22;;;;;;;14.30;7.90;;;;;;;3.94;57.59;97049.50;12839563;23;20017;-78
2022/01/08 13:22:48;;;;;;;12.70;6.65;;;;;;;3.99;57.80;97045.06;12818357;23;20363;-78
2022/01/08 13:28:09;;;;;;;11.10;7.45;;;;;;;4.00;57.60;97035.47;12779708;23;20144;-78
2022/01/08 13:33:30;;;;;;;10.95;6.68;;;;;;;4.02;57.39;97041.16;12823019;23;20036;-78
2022/01/08 13:38:55;;;;;;;13.38;7.03;;;;;;;4.00;57.76;97046.53;12842736;23;20345;-78
2022/01/08 13:44:18;;;;;;;11.75;7.70;;;;;;;4.01;57.96;97039.69;12822240;23;20020;-77
2022/01/08 13:49:39;;;;;;;11.95;6.97;;;;;;;3.94;58.38;97034.97;12822350;23;20013;-77
2022/01/08 13:55:10;;;;;;;11.85;7.15;;;;;;;3.99;58.36;97042.31;12822781;23;20017;-77
2022/01/08 14:00:33;;;;;;;11.07;7.38;;;;;;;4.05;58.76;97042.78;12822412;23;20075;-77
2022/01/08 14:05:59;;;;;;;13.50;7.68;;;;;;;4.03;58.75;97046.13;12821836;23;20024;-77
2022/01/08 14:11:21;;;;;;;12.68;8.13;;;;;;;4.04;58.59;97049.59;12802371;23;20336;-78
2022/01/08 14:16:44;;;;;;;13.85;8.25;;;;;;;3.97;59.08;97045.63;12802670;23;20088;-77
2022/01/08 14:22:09;;;;;;;14.93;8.98;;;;;;;3.92;59.01;97032.78;12822064;23;20082;-77
2022/01/08 14:27:37;;;;;;;;;;;;;;;3.96;58.99;97037.94;12822916;23;20018;-77
2022/01/08 14:33:03;;;;;;;17.08;9.52;;;;;;;4.08;58.58;97055.47;12863423;23;19922;-78
2022/01/08 14:38:23;;;;;;;17.02;9.90;;;;;;;4.12;59.04;97044.75;12820406;23;20066;-78
2022/01/08 14:43:45;;;;;;;12.60;7.70;;;;;;;4.21;58.83;97046.13;12822033;23;20012;-82
2022/01/08 14:49:06;;;;;;;7.78;5.22;;;;;;;4.21;59.41;97046.13;12854034;23;20020;-82
2022/01/08 15:00:43;;;;;;;11.35;6.03;;;;;;;3.93;60.88;97048.06;12694863;23;20021;-82
2022/01/08 15:06:04;;;;;;;9.70;6.00;;;;;;;3.87;60.23;97046.84;12840649;23;20040;-80
2022/01/08 15:11:25;;;;;;;11.10;6.65;;;;;;;3.82;60.89;97059.56;12850705;23;20044;-79
2022/01/08 15:16:47;;;;;;;11.55;7.18;;;;;;;3.76;61.17;97055.56;12786077;23;21164;-78
2022/01/08 15:22:32;;;;;;;14.55;8.07;;;;;;;3.70;60.97;97053.78;12785195;23;20070;-79
2022/01/08 15:27:53;;;;;;;12.18;7.90;;;;;;;3.63;61.47;97062.88;12820923;23;20020;-80
2022/01/08 15:33:14;;;;;;;13.20;8.35;;;;;;;3.53;62.19;97050.97;12791485;23;20023;-84
2022/01/08 15:38:36;;;;;;;12.27;7.57;;;;;;;3.53;62.16;97053.75;12817682;23;20081;-81
2022/01/08 15:44:16;;;;;;;13.48;8.98;;;;;;;3.49;62.15;97058.94;12805014;23;20029;-81
2022/01/08 15:49:38;;;;;;;13.73;9.40;;;;;;;3.47;62.11;97067.03;12835621;23;20092;-80
2022/01/08 15:54:58;;;;;;;15.40;10.85;;;;;;;3.44;62.33;97063.38;12841792;23;20036;-80
2022/01/08 16:00:55;;;;;;;17.70;10.27;;;;;;;3.46;62.85;97071.09;12708809;23;20842;31
2022/01/08 16:06:16;;;;;;;19.60;11.18;;;;;;;3.44;62.55;97068.91;12595579;23;20014;-79
2022/01/08 16:11:37;;;;;;;16.73;11.05;;;;;;;3.46;63.05;97071.09;12596495;23;20096;-78
2022/01/08 16:16:58;;;;;;;17.75;10.60;;;;;;;3.48;63.71;97071.28;12598783;23;20042;-79
2022/01/08 16:22:19;;;;;;;15.77;9.15;;;;;;;3.40;64.42;97082.34;12576649;23;20096;-78
2022/01/08 16:27:40;;;;;;;14.13;8.77;;;;;;;3.40;63.72;97084.38;12575304;23;20026;-78
2022/01/08 16:33:01;;;;;;;13.10;7.85;;;;;;;3.35;63.22;97088.81;12581355;23;20100;-78
2022/01/08 16:38:22;;;;;;;12.48;8.80;;;;;;;3.28;64.05;97089.63;12558412;23;20334;-79
2022/01/08 16:43:42;;;;;;;15.32;8.90;;;;;;;3.24;63.51;97088.53;12591759;23;20066;-82
2022/01/08 16:49:04;;;;;;;15.48;8.13;;;;;;;3.23;63.56;97087.06;12574027;23;20023;-79
2022/01/08 16:54:25;;;;;;;12.00;6.97;;;;;;;3.19;64.11;97081.94;12555859;23;20018;-78
2022/01/08 16:59:46;;;;;;;12.98;9.07;;;;;;;3.17;63.68;97076.25;12577163;23;20022;-78
2022/01/08 17:05:09;;;;;;;11.30;7.93;;;;;;;3.12;63.91;97079.97;12584242;23;20422;-78
2022/01/08 17:10:31;;;;;;;11.07;7.28;;;;;;;3.14;64.25;97082.88;12609950;23;20027;-78
2022/01/08 17:15:54;;;;;;;10.90;7.00;;;;;;;3.16;64.26;97083.78;12615510;23;20006;-81
2022/01/08 17:27:31;;;;;;;10.98;6.88;;;;;;;3.15;63.84;97087.84;12749095;23;20108;-79
2022/01/08 17:32:52;;;;;;;11.38;6.35;;;;;;;3.14;63.74;97074.63;12689621;23;20021;-78
2022/01/08 17:38:14;;;;;;;12.38;6.85;;;;;;;3.13;63.85;97071.13;12726033;23;20085;-80
2022/01/08 17:43:35;;;;;;;12.23;7.57;;;;;;;3.10;63.83;97066.75;12708900;23;20017;-80
2022/01/08 17:48:57;;;;;;;10.30;6.72;;;;;;;3.09;64.04;97056.28;12698573;23;20388;-80
2022/01/08 17:54:18;;;;;;;7.93;5.07;;;;;;;3.09;63.67;97062.53;12736387;23;20021;-78
2022/01/08 17:59:42;;;;;;;8.02;5.68;;;;;;;3.11;64.11;97070.22;12723869;23;20040;-81
2022/01/08 18:05:05;;;;;;;10.48;6.45;;;;;;;3.11;64.28;97073.72;12686269;23;20318;-79
2022/01/08 18:10:26;;;;;;;13.40;7.40;;;;;;;3.14;63.75;97069.84;12760157;23;20336;-77
2022/01/08 18:15:47;;;;;;;9.52;6.60;;;;;;;3.10;63.98;97061.22;12742686;23;20436;-78
2022/01/08 18:21:08;;;;;;;10.13;6.78;;;;;;;3.06;63.94;97052.59;12760404;23;20045;-77
2022/01/08 18:26:29;;;;;;;8.98;7.03;;;;;;;3.03;64.01;97042.69;12722537;23;20038;-77
2022/01/08 18:31:50;;;;;;;9.45;6.60;;;;;;;2.98;64.12;97048.41;12740307;23;20025;-77
2022/01/08 18:37:11;;;;;;;10.43;7.30;;;;;;;2.93;64.67;97035.59;12741156;23;20041;-77
2022/01/08 18:42:32;;;;;;;9.63;5.70;;;;;;;2.91;64.24;97040.94;12720406;23;20100;-77
2022/01/08 18:47:53;;;;;;;11.10;5.45;;;;;;;2.90;63.43;97039.47;12750282;23;20092;-78
2022/01/08 18:53:14;;;;;;;10.52;6.50;;;;;;;2.84;63.17;97023.88;12738821;23;20024;-80
2022/01/08 18:58:35;;;;;;;9.25;6.22;;;;;;;2.83;63.26;97019.66;12796584;23;20021;-78
2022/01/08 19:03:56;;;;;;;6.72;3.92;;;;;;;2.79;62.79;97010.28;12737844;23;20038;-75
2022/01/08 19:09:21;;;;;;;9.32;4.20;;;;;;;2.72;62.74;97019.34;12699389;23;20028;-76
2022/01/08 19:14:45;;;;;;;8.52;4.70;;;;;;;2.57;62.18;96996.09;12698477;23;20085;-76
2022/01/08 19:20:07;;;;;;;9.38;3.78;;;;;;;2.38;62.49;96997.84;12738054;23;20040;-77
2022/01/08 19:25:32;;;;;;;5.63;3.60;;;;;;;2.21;62.60;96984.66;12730809;23;20021;-76
2022/01/08 19:30:52;;;;;;;7.93;3.75;;;;;;;2.04;62.74;96979.06;12739289;23;20474;-76
2022/01/08 19:36:14;;;;;;;5.90;2.88;;;;;;;2.05;62.11;96969.50;12779452;23;20088;-76
2022/01/08 19:41:35;;;;;;;6.40;2.95;;;;;;;2.13;62.43;96961.97;12759166;23;20100;-76
2022/01/08 19:46:56;;;;;;;7.95;3.10;;;;;;;2.13;62.03;96943.44;12799142;23;20013;-77
2022/01/08 19:52:17;;;;;;;5.07;2.97;;;;;;;2.00;62.47;96944.38;12758425;23;20353;-76
2022/01/08 19:57:38;;;;;;;8.68;4.22;;;;;;;1.96;62.46;96927.50;12758424;23;20048;-76
2022/01/08 20:02:59;;;;;;;8.80;4.50;;;;;;;1.89;62.66;96928.28;12758683;23;20336;-76
2022/01/08 20:08:21;;;;;;;8.73;4.40;;;;;;;1.80;62.56;96903.34;12758255;23;20055;-77
2022/01/08 20:13:42;;;;;;;6.03;3.45;;;;;;;1.71;62.91;96902.63;12738135;23;20393;-77
2022/01/08 20:19:03;;;;;;;8.60;4.00;;;;;;;1.70;62.92;96883.94;12757441;23;20112;-77
2022/01/08 20:24:23;;;;;;;6.97;3.92;;;;;;;1.65;62.64;96876.63;12737058;23;20021;-77
2022/01/08 20:29:44;;;;;;;6.00;3.60;;;;;;;1.68;63.34;96870.00;12757057;23;20012;-76
2022/01/08 20:35:05;;;;;;;5.75;3.10;;;;;;;1.75;62.92;96857.53;12757758;23;20021;-76
2022/01/08 20:40:30;;;;;;;6.07;3.58;;;;;;;1.73;62.55;96847.06;12757190;23;20377;-77
2022/01/08 20:45:56;;;;;;;7.55;3.42;;;;;;;1.68;62.38;96848.75;12760414;23;20017;-76
2022/01/08 20:51:22;;;;;;;7.07;3.20;;;;;;;1.40;62.49;96838.00;12758315;23;20037;-76
2022/01/08 20:56:43;;;;;;;6.07;2.90;;;;;;;1.18;62.88;96825.06;12757001;23;20013;-76
2022/01/08 21:02:05;;;;;;;6.28;3.00;;;;;;;1.00;62.54;96815.94;12798612;23;20069;-76
2022/01/08 21:07:27;;;;;;;8.63;3.28;;;;;;;0.92;63.00;96801.47;12758130;23;20021;-76
2022/01/08 21:12:48;;;;;;;6.75;3.25;;;;;;;0.80;62.88;96799.13;12759080;23;20349;-78
2022/01/08 21:18:09;;;;;;;6.53;2.92;;;;;;;0.66;62.87;96797.13;12756447;23;20020;-78
2022/01/08 21:23:31;;;;;;;6.10;3.20;;;;;;;0.55;63.04;96781.75;12733756;23;20391;-78
2022/01/08 21:28:52;;;;;;;8.15;3.72;;;;;;;0.49;62.68;96770.97;12736235;23;20100;-78
2022/01/08 21:34:14;;;;;;;9.15;3.63;;;;;;;0.42;63.02;96766.19;12754207;23;20021;-78
2022/01/08 21:39:37;;;;;;;9.45;3.30;;;;;;;0.43;62.76;96742.94;12777170;23;20025;-78
2022/01/08 21:44:57;;;;;;;8.20;4.13;;;;;;;0.41;63.42;96731.78;12760193;23;20020;-78
2022/01/08 21:50:19;;;;;;;8.98;4.38;;;;;;;0.30;62.98;96725.94;12758066;23;20021;-77
2022/01/08 21:55:40;;;;;;;12.88;5.25;;;;;;;0.27;63.08;96723.00;12737585;23;20021;-78
2022/01/08 22:01:01;;;;;;;7.82;4.50;;;;;;;0.19;63.35;96708.56;12758299;23;20017;-78
2022/01/08 22:06:22;;;;;;;8.65;4.60;;;;;;;0.16;63.21;96701.41;12738789;23;20027;-78
2022/01/08 22:11:43;;;;;;;7.13;4.00;;;;;;;0.18;62.73;96692.63;12757899;23;20017;-78
2022/01/08 22:17:04;;;;;;;7.28;3.50;;;;;;;0.16;63.02;96684.22;12779163;23;20087;-78
2022/01/08 22:22:26;;;;;;;9.35;4.07;;;;;;;0.10;62.82;96669.97;12760691;23;20393;-78
2022/01/08 22:27:47;;;;;;;8.40;4.55;;;;;;;0.01;62.72;96662.28;12779340;23;20013;-78
2022/01/08 22:33:08;;;;;;;10.90;4.30;;;;;;;-0.01;62.75;96647.09;12757743;23;20020;-78
2022/01/08 22:38:29;;;;;;;7.28;3.88;;;;;;;-0.09;63.24;96635.41;12759000;23;20017;-78
2022/01/08 22:43:50;;;;;;;7.53;3.65;;;;;;;-0.08;62.79;96627.91;12738848;23;20025;-78
2022/01/08 22:49:11;;;;;;;10.57;4.47;;;;;;;-0.10;62.96;96606.50;12759629;23;20312;-77
2022/01/08 22:54:32;;;;;;;9.93;3.75;;;;;;;-0.06;62.68;96586.94;12758843;23;20026;-77
2022/01/08 22:59:53;;;;;;;9.32;3.67;;;;;;;0.10;62.97;96568.44;12738997;23;20024;-77
2022/01/08 23:05:13;;;;;;;7.18;3.63;;;;;;;0.06;62.63;96560.56;12707203;23;20017;-77
2022/01/08 23:10:35;;;;;;;8.50;3.33;;;;;;;-0.02;62.98;96543.38;12697593;23;20021;-77
2022/01/08 23:15:56;;;;;;;7.40;3.47;;;;;;;-0.09;62.59;96544.16;12697187;23;20025;-77
2022/01/08 23:21:17;;;;;;;7.97;3.10;;;;;;;-0.12;63.02;96517.81;12697871;23;20018;-77
2022/01/08 23:26:39;;;;;;;10.45;3.22;;;;;;;-0.18;62.86;96509.06;12697509;23;20013;-78
2022/01/08 23:31:59;;;;;;;7.25;3.30;;;;;;;-0.26;63.22;96494.63;12677423;23;20017;-77
2022/01/08 23:37:20;;;;;;;5.22;3.22;;;;;;;-0.27;62.52;96491.16;12697574;23;20060;-77
2022/01/08 23:42:41;;;;;;;7.07;3.40;;;;;;;-0.35;63.08;96474.00;12717449;23;20344;-77
2022/01/08 23:48:04;;;;;;;6.75;2.97;;;;;;;-0.37;62.73;96462.84;12697292;23;20018;-77
2022/01/08 23:53:25;;;;;;;9.52;4.13;;;;;;;-0.39;62.80;96457.91;12718300;23;20519;-77
2022/01/08 23:58:46;;;;;;;6.50;3.60;;;;;;;-0.45;62.75;96448.44;12717353;23;20084;-77
